createdAt,value
2023-01-29T00:02:01.079Z,10.50
2023-01-29T00:04:28.480Z,6.00
2023-01-29T00:06:55.910Z,5.50
2023-01-29T00:09:23.505Z,8.50
2023-01-29T00:11:51.188Z,6.00
2023-01-29T00:14:19.392Z,6.00
2023-01-29T00:16:46.751Z,8.75
2023-01-29T00:19:14.283Z,4.00
2023-01-29T00:21:41.899Z,13.25
2023-01-29T00:24:09.461Z,9.50
2023-01-29T00:26:39.145Z,15.50
2023-01-29T00:29:07.109Z,7.75
2023-01-29T00:31:34.896Z,9.75
2023-01-29T00:34:02.542Z,9.50
2023-01-29T00:36:29.912Z,6.75
2023-01-29T00:39:02.986Z,8.75
2023-01-29T00:41:51.270Z,7.00
2023-01-29T00:44:37.330Z,11.00
2023-01-29T00:47:25.847Z,11.00
2023-01-29T00:49:53.701Z,7.00
2023-01-29T00:52:27.261Z,6.00
2023-01-29T00:54:58.311Z,6.00
2023-01-29T00:57:28.079Z,4.50
2023-01-29T00:59:55.966Z,9.75
2023-01-29T01:02:43.368Z,1.50
2023-01-29T01:05:18.425Z,7.00
2023-01-29T01:07:48.168Z,6.25
2023-01-29T01:10:22.303Z,8.00
2023-01-29T01:12:59.349Z,6.00
2023-01-29T01:15:30.946Z,6.75
2023-01-29T01:18:00.930Z,8.50
2023-01-29T01:20:31.263Z,11.00
2023-01-29T01:22:58.951Z,8.00
2023-01-29T01:25:27.915Z,9.25
2023-01-29T01:28:03.212Z,14.00
2023-01-29T01:30:31.055Z,9.25
2023-01-29T01:32:59.265Z,11.00
2023-01-29T01:35:26.879Z,10.50
2023-01-29T01:37:54.650Z,7.25
2023-01-29T01:40:24.023Z,14.50
2023-01-29T01:43:01.127Z,15.50
2023-01-29T01:45:35.009Z,8.50
2023-01-29T01:48:23.178Z,14.25
2023-01-29T01:50:59.111Z,7.75
2023-01-29T01:53:39.430Z,12.25
2023-01-29T01:56:14.535Z,12.25
2023-01-29T01:58:50.755Z,6.25
2023-01-29T02:01:19.250Z,12.00
2023-01-29T02:04:31.772Z,13.25
2023-01-29T02:07:21.941Z,9.75
2023-01-29T02:09:59.953Z,9.00
2023-01-29T02:12:31.366Z,7.00
2023-01-29T02:15:00.014Z,12.00
2023-01-29T02:17:27.697Z,15.25
2023-01-29T02:20:19.413Z,12.75
2023-01-29T02:23:05.356Z,9.50
2023-01-29T02:25:51.444Z,8.00
2023-01-29T02:28:43.452Z,14.00
2023-01-29T02:31:25.268Z,3.75
2023-01-29T02:34:11.095Z,10.50
2023-01-29T02:36:59.806Z,8.75
2023-01-29T02:39:57.311Z,9.50
2023-01-29T02:42:39.145Z,13.00
2023-01-29T02:45:33.171Z,11.50
2023-01-29T02:48:02.799Z,11.75
2023-01-29T02:50:59.027Z,13.00
2023-01-29T02:54:03.102Z,9.00
2023-01-29T02:56:45.380Z,8.00
2023-01-29T02:59:25.065Z,9.00
2023-01-29T03:02:02.475Z,11.25
2023-01-29T03:04:43.073Z,10.50
2023-01-29T03:07:44.791Z,16.75
2023-01-29T03:10:28.922Z,9.25
2023-01-29T03:13:22.829Z,14.50
2023-01-29T03:16:01.683Z,6.00
2023-01-29T03:18:51.221Z,14.25
2023-01-29T03:21:51.705Z,17.00
2023-01-29T03:24:45.376Z,10.00
2023-01-29T03:27:35.326Z,8.25
2023-01-29T03:30:23.831Z,11.00
2023-01-29T03:33:02.977Z,13.25
2023-01-29T03:35:37.110Z,9.75
2023-01-29T03:38:11.781Z,14.25
2023-01-29T03:40:59.823Z,11.50
2023-01-29T03:43:34.770Z,7.75
2023-01-29T03:46:34.257Z,7.50
2023-01-29T03:49:10.862Z,1.00
2023-01-29T03:52:14.372Z,10.00
2023-01-29T03:54:54.792Z,10.00
2023-01-29T03:57:45.974Z,14.40
2023-01-29T04:00:33.434Z,14.00
2023-01-29T04:03:18.031Z,13.00
2023-01-29T04:05:58.624Z,12.25
2023-01-29T04:08:36.122Z,12.25
2023-01-29T04:11:12.831Z,9.40
2023-01-29T04:13:41.698Z,17.00
2023-01-29T04:16:19.985Z,13.80
2023-01-29T04:19:20.282Z,13.40
2023-01-29T04:21:53.303Z,10.40
2023-01-29T04:24:20.945Z,6.75
2023-01-29T04:26:58.184Z,10.50
2023-01-29T04:29:59.075Z,11.00
2023-01-29T04:32:54.772Z,12.25
2023-01-29T04:35:48.263Z,13.00
2023-01-29T04:38:57.967Z,6.20
2023-01-29T04:41:37.044Z,45.50
2023-01-29T04:44:27.910Z,11.00
2023-01-29T04:47:27.828Z,15.50
2023-01-29T04:50:17.320Z,9.25
2023-01-29T04:52:53.493Z,10.60
2023-01-29T04:55:50.108Z,17.20
2023-01-29T04:58:36.666Z,9.00
2023-01-29T05:01:07.416Z,14.00
2023-01-29T05:03:37.819Z,15.60
2023-01-29T05:06:08.193Z,14.80
2023-01-29T05:08:38.918Z,14.60
2023-01-29T05:11:06.860Z,7.80
2023-01-29T05:13:39.393Z,9.40
2023-01-29T05:16:15.345Z,13.80
2023-01-29T05:18:43.134Z,12.60
2023-01-29T05:21:11.284Z,13.00
2023-01-29T05:23:38.977Z,9.20
2023-01-29T05:26:06.661Z,11.00
2023-01-29T05:28:34.123Z,8.40
2023-01-29T05:31:01.830Z,10.20
2023-01-29T05:33:31.244Z,8.40
2023-01-29T05:36:01.665Z,13.25
2023-01-29T05:38:29.404Z,8.00
2023-01-29T05:40:59.953Z,16.25
2023-01-29T05:43:27.599Z,7.40
2023-01-29T05:45:57.522Z,12.20
2023-01-29T05:48:26.365Z,12.75
2023-01-29T05:50:54.131Z,9.80
2023-01-29T05:53:21.665Z,10.40
2023-01-29T05:55:49.750Z,14.00
2023-01-29T05:58:17.831Z,10.80
2023-01-29T06:00:45.125Z,8.80
2023-01-29T06:03:12.830Z,14.20
2023-01-29T06:05:40.579Z,11.00
2023-01-29T06:08:08.818Z,10.75
2023-01-29T06:10:36.521Z,10.00
2023-01-29T06:13:04.181Z,8.60
2023-01-29T06:15:31.677Z,14.60
2023-01-29T06:17:59.201Z,11.00
2023-01-29T06:20:27.205Z,8.80
2023-01-29T06:22:55.081Z,7.00
2023-01-29T06:25:22.513Z,12.50
2023-01-29T06:27:53.187Z,7.00
2023-01-29T06:30:21.268Z,13.00
2023-01-29T06:32:48.685Z,11.40
2023-01-29T06:35:16.198Z,11.20
2023-01-29T06:37:43.434Z,19.00
2023-01-29T06:40:11.527Z,14.60
2023-01-29T06:42:38.716Z,9.00
2023-01-29T06:45:06.619Z,17.60
2023-01-29T06:47:33.814Z,6.60
2023-01-29T06:50:01.743Z,13.00
2023-01-29T06:52:29.942Z,13.40
2023-01-29T06:54:57.262Z,9.60
2023-01-29T06:57:24.624Z,17.00
2023-01-29T06:59:51.969Z,9.20
2023-01-29T07:02:19.477Z,12.80
2023-01-29T07:04:46.871Z,10.40
2023-01-29T07:07:14.088Z,16.80
2023-01-29T07:09:42.468Z,11.60
2023-01-29T07:12:11.175Z,15.40
2023-01-29T07:14:38.447Z,14.20
2023-01-29T07:17:06.204Z,23.40
2023-01-29T07:19:33.759Z,15.60
2023-01-29T07:22:03.488Z,15.40
2023-01-29T07:24:31.092Z,17.00
2023-01-29T07:26:58.521Z,10.20
2023-01-29T07:29:25.897Z,16.40
2023-01-29T07:31:53.298Z,14.20
2023-01-29T07:34:20.824Z,9.20
2023-01-29T07:36:48.343Z,14.80
2023-01-29T07:39:15.900Z,11.80
2023-01-29T07:41:43.438Z,20.00
2023-01-29T07:44:16.941Z,14.20
2023-01-29T07:46:44.538Z,15.40
2023-01-29T07:49:12.091Z,16.80
2023-01-29T07:51:39.788Z,22.80
2023-01-29T07:54:07.183Z,13.20
2023-01-29T07:56:34.524Z,12.40
2023-01-29T07:59:01.856Z,12.80
2023-01-29T08:01:29.174Z,16.40
2023-01-29T08:03:56.558Z,15.60
2023-01-29T08:06:23.804Z,10.80
2023-01-29T08:08:52.416Z,15.80
2023-01-29T08:11:19.641Z,12.20
2023-01-29T08:13:47.080Z,15.60
2023-01-29T08:16:14.812Z,14.20
2023-01-29T08:18:46.450Z,14.80
2023-01-29T08:21:14.458Z,11.80
2023-01-29T08:23:41.933Z,18.00
2023-01-29T08:26:09.882Z,10.40
2023-01-29T08:28:39.154Z,11.80
2023-01-29T08:31:14.844Z,16.00
2023-01-29T08:33:42.723Z,10.20
2023-01-29T08:36:10.560Z,12.40
2023-01-29T08:38:38.320Z,21.40
2023-01-29T08:41:06.534Z,5.60
2023-01-29T08:43:37.305Z,9.40
2023-01-29T08:46:08.458Z,10.80
2023-01-29T08:48:37.104Z,12.00
2023-01-29T08:51:04.915Z,14.80
2023-01-29T08:53:32.824Z,21.20
2023-01-29T08:56:00.546Z,8.80
2023-01-29T08:58:28.065Z,14.20
2023-01-29T09:00:55.488Z,9.40
2023-01-29T09:03:23.243Z,12.00
2023-01-29T09:05:50.870Z,14.20
2023-01-29T09:08:18.202Z,12.00
2023-01-29T09:10:45.734Z,14.60
2023-01-29T09:13:13.394Z,6.20
2023-01-29T09:15:40.942Z,16.80
2023-01-29T09:18:08.511Z,8.80
2023-01-29T09:20:38.410Z,13.40
2023-01-29T09:23:07.550Z,12.80
2023-01-29T09:25:34.934Z,14.60
2023-01-29T09:28:02.329Z,11.00
2023-01-29T09:30:29.851Z,12.40
2023-01-29T09:32:57.197Z,1.00
2023-01-29T09:35:24.770Z,10.20
2023-01-29T09:37:52.692Z,12.60
2023-01-29T09:40:51.915Z,7.60
2023-01-29T09:43:24.508Z,15.80
2023-01-29T09:46:02.497Z,9.60
2023-01-29T09:48:33.439Z,10.80
2023-01-29T09:51:07.665Z,10.00
2023-01-29T09:53:46.857Z,8.80
2023-01-29T09:56:22.728Z,14.80
2023-01-29T09:58:50.102Z,9.20
2023-01-29T10:01:40.977Z,11.80
2023-01-29T10:04:33.774Z,13.20
2023-01-29T10:07:33.163Z,8.60
2023-01-29T10:10:18.374Z,9.80
2023-01-29T10:13:38.516Z,12.80
2023-01-29T10:16:09.243Z,12.80
2023-01-29T10:18:59.207Z,7.20
2023-01-29T10:22:01.244Z,6.80
2023-01-29T10:24:58.074Z,10.20
2023-01-29T10:27:38.726Z,10.60
2023-01-29T10:30:31.256Z,10.40
2023-01-29T10:33:04.290Z,7.80
2023-01-29T10:35:54.708Z,6.00
2023-01-29T10:38:40.726Z,8.40
2023-01-29T10:41:11.431Z,9.20
2023-01-29T10:43:50.847Z,8.20
2023-01-29T10:46:29.938Z,10.80
2023-01-29T10:49:27.646Z,5.80
2023-01-29T10:52:06.372Z,10.40
2023-01-29T10:54:42.400Z,8.00
2023-01-29T10:57:28.008Z,5.60
2023-01-29T11:00:13.618Z,9.00
2023-01-29T11:02:46.727Z,7.00
2023-01-29T11:05:20.445Z,6.00
2023-01-29T11:07:50.042Z,4.40
2023-01-29T11:10:22.720Z,6.60
2023-01-29T11:12:51.199Z,4.00
2023-01-29T11:15:32.516Z,10.00
2023-01-29T11:18:03.898Z,7.00
2023-01-29T11:20:33.483Z,6.40
2023-01-29T11:23:01.143Z,9.60
2023-01-29T11:25:30.046Z,13.40
2023-01-29T11:28:02.152Z,8.60
2023-01-29T11:30:37.507Z,10.20
2023-01-29T11:33:23.960Z,8.20
2023-01-29T11:35:52.825Z,9.60
2023-01-29T11:38:30.623Z,13.80
2023-01-29T11:41:22.487Z,8.40
2023-01-29T11:43:49.880Z,7.40
2023-01-29T11:46:17.125Z,6.20
2023-01-29T11:48:48.085Z,7.20
2023-01-29T11:51:29.645Z,13.00
2023-01-29T11:54:03.751Z,6.20
2023-01-29T11:56:40.802Z,7.80
2023-01-29T11:59:25.510Z,11.40
2023-01-29T12:01:52.985Z,5.80
2023-01-29T12:04:24.050Z,9.20
2023-01-29T12:06:54.080Z,6.40
2023-01-29T12:09:24.676Z,14.20
2023-01-29T12:11:52.799Z,9.20
2023-01-29T12:14:33.650Z,5.60
2023-01-29T12:17:20.214Z,4.60
2023-01-29T12:20:04.840Z,6.40
2023-01-29T12:22:50.830Z,15.20
2023-01-29T12:25:42.086Z,5.80
2023-01-29T12:28:36.485Z,7.40
2023-01-29T12:31:04.059Z,5.00
2023-01-29T12:33:58.420Z,11.20
2023-01-29T12:36:36.455Z,7.00
2023-01-29T12:39:03.810Z,8.40
2023-01-29T12:41:34.181Z,11.20
2023-01-29T12:44:21.545Z,8.80
2023-01-29T12:46:54.542Z,4.20
2023-01-29T12:49:35.506Z,5.40
2023-01-29T12:52:18.103Z,6.60
2023-01-29T12:54:56.481Z,5.20
2023-01-29T12:57:33.070Z,9.80
2023-01-29T13:00:13.649Z,9.00
2023-01-29T13:03:09.127Z,4.40
2023-01-29T13:05:41.640Z,6.60
2023-01-29T13:08:19.802Z,4.00
2023-01-29T13:10:51.168Z,1.80
2023-01-29T13:13:33.485Z,10.60
2023-01-29T13:16:04.687Z,7.60
2023-01-29T13:18:56.116Z,7.20
2023-01-29T13:21:29.526Z,5.60
2023-01-29T13:24:04.990Z,5.80
2023-01-29T13:26:34.712Z,11.20
2023-01-29T13:29:03.187Z,5.20
2023-01-29T13:31:38.207Z,4.80
2023-01-29T13:34:15.003Z,8.80
2023-01-29T13:36:48.122Z,3.80
2023-01-29T13:39:32.242Z,8.80
2023-01-29T13:42:01.580Z,9.60
2023-01-29T13:44:36.191Z,9.40
2023-01-29T13:47:06.721Z,7.40
2023-01-29T13:49:36.283Z,7.80
2023-01-29T13:52:24.814Z,3.60
2023-01-29T13:55:21.831Z,3.40
2023-01-29T13:57:54.723Z,8.00
2023-01-29T14:00:36.611Z,6.20
2023-01-29T14:03:04.931Z,9.20
2023-01-29T14:05:32.079Z,4.20
2023-01-29T14:08:01.674Z,6.80
2023-01-29T14:10:36.610Z,8.20
2023-01-29T14:13:04.218Z,6.00
2023-01-29T14:15:35.309Z,10.00
2023-01-29T14:18:08.564Z,9.60
2023-01-29T14:20:52.974Z,14.00
2023-01-29T14:23:52.851Z,7.60
2023-01-29T14:26:33.366Z,9.40
2023-01-29T14:29:04.137Z,8.00
2023-01-29T14:31:59.622Z,7.00
2023-01-29T14:34:45.177Z,8.20
2023-01-29T14:37:15.817Z,9.80
2023-01-29T14:39:48.498Z,10.20
2023-01-29T14:42:25.501Z,6.80
2023-01-29T14:44:59.472Z,8.00
2023-01-29T14:47:39.108Z,7.60
2023-01-29T14:50:35.015Z,5.20
2023-01-29T14:53:14.895Z,17.40
2023-01-29T14:55:45.719Z,6.20
2023-01-29T14:58:47.206Z,5.80
2023-01-29T15:01:36.223Z,4.80
2023-01-29T15:04:21.007Z,7.00
2023-01-29T15:06:56.425Z,5.60
2023-01-29T15:10:21.363Z,5.00
2023-01-29T15:13:16.350Z,9.80
2023-01-29T15:15:56.638Z,4.00
2023-01-29T15:18:35.395Z,11.80
2023-01-29T15:21:05.906Z,4.40
2023-01-29T15:23:35.100Z,3.80
2023-01-29T15:26:06.408Z,5.40
2023-01-29T15:28:36.213Z,5.00
2023-01-29T15:31:08.303Z,9.00
2023-01-29T15:33:38.878Z,8.40
2023-01-29T15:36:08.088Z,7.40
2023-01-29T15:38:36.529Z,5.60
2023-01-29T15:41:22.246Z,4.80
2023-01-29T15:43:58.445Z,9.20
2023-01-29T15:46:27.765Z,6.20
2023-01-29T15:48:57.540Z,7.40
2023-01-29T15:51:27.641Z,4.60
2023-01-29T15:53:56.338Z,9.40
2023-01-29T15:56:33.716Z,9.60
2023-01-29T15:59:09.328Z,4.00
2023-01-29T16:01:37.372Z,4.40
2023-01-29T16:04:05.302Z,9.00
2023-01-29T16:06:41.359Z,4.00
2023-01-29T16:09:12.753Z,5.80
2023-01-29T16:11:40.591Z,5.00
2023-01-29T16:14:08.496Z,12.60
2023-01-29T16:16:35.966Z,4.60
2023-01-29T16:19:21.755Z,4.60
2023-01-29T16:22:00.834Z,7.00
2023-01-29T16:24:29.893Z,2.20
2023-01-29T16:27:07.552Z,5.00
2023-01-29T16:29:35.682Z,4.60
2023-01-29T16:32:05.359Z,7.00
2023-01-29T16:34:38.946Z,4.80
2023-01-29T16:37:18.342Z,3.00
2023-01-29T16:39:48.320Z,6.40
2023-01-29T16:42:20.314Z,4.00
2023-01-29T16:44:51.798Z,3.00
2023-01-29T16:47:41.348Z,6.00
2023-01-29T16:50:46.350Z,4.40
2023-01-29T16:53:23.469Z,3.60
2023-01-29T16:55:52.686Z,3.80
2023-01-29T16:58:24.535Z,3.60
2023-01-29T17:01:01.285Z,3.80
2023-01-29T17:03:33.475Z,2.80
2023-01-29T17:06:13.036Z,5.80
2023-01-29T17:08:43.384Z,4.00
2023-01-29T17:11:23.232Z,3.80
2023-01-29T17:13:50.597Z,2.40
2023-01-29T17:16:32.239Z,1.80
2023-01-29T17:19:00.367Z,2.00
2023-01-29T17:21:30.495Z,8.60
2023-01-29T17:23:57.744Z,5.60
2023-01-29T17:26:25.210Z,6.40
2023-01-29T17:28:55.185Z,7.00
2023-01-29T17:31:22.481Z,6.00
2023-01-29T17:33:49.997Z,4.00
2023-01-29T17:36:18.295Z,3.80
2023-01-29T17:38:46.007Z,8.80
2023-01-29T17:41:28.047Z,8.80
2023-01-29T17:43:55.329Z,6.40
2023-01-29T17:46:22.972Z,5.40
2023-01-29T17:48:50.439Z,4.00
2023-01-29T17:51:18.523Z,5.20
2023-01-29T17:53:47.168Z,6.00
2023-01-29T17:56:30.461Z,2.80
2023-01-29T17:58:57.728Z,2.00
2023-01-29T18:01:25.027Z,1.60
2023-01-29T18:03:52.297Z,2.40
2023-01-29T18:06:29.307Z,1.00
2023-01-29T18:08:56.938Z,7.60
2023-01-29T18:11:24.531Z,1.00
2023-01-29T18:13:51.848Z,2.20
2023-01-29T18:16:22.073Z,4.00
2023-01-29T18:18:50.180Z,2.60
2023-01-29T18:21:17.589Z,1.80
2023-01-29T18:23:44.976Z,3.00
2023-01-29T18:26:13.288Z,4.80
2023-01-29T18:28:43.522Z,1.00
2023-01-29T18:31:13.158Z,1.00
2023-01-29T18:33:41.260Z,2.20
2023-01-29T18:36:09.173Z,4.60
2023-01-29T18:38:36.567Z,1.00
2023-01-29T18:41:10.834Z,2.00
2023-01-29T18:43:42.107Z,6.80
2023-01-29T18:46:10.329Z,3.00
2023-01-29T18:48:37.712Z,1.00
2023-01-29T18:51:05.319Z,2.80
2023-01-29T18:53:33.612Z,2.20
2023-01-29T18:56:04.380Z,1.80
2023-01-29T18:58:36.438Z,1.00
2023-01-29T19:01:10.988Z,5.40
2023-01-29T19:03:41.458Z,1.40
2023-01-29T19:06:11.388Z,5.00
2023-01-29T19:08:39.610Z,3.60
2023-01-29T19:11:08.372Z,2.20
2023-01-29T19:13:36.948Z,4.00
2023-01-29T19:16:12.777Z,1.60
2023-01-29T19:18:40.343Z,1.00
2023-01-29T19:21:10.723Z,5.60
2023-01-29T19:23:38.188Z,1.00
2023-01-29T19:26:05.810Z,2.00
2023-01-29T19:28:33.405Z,5.00
2023-01-29T19:31:01.267Z,1.20
2023-01-29T19:33:28.718Z,2.20
2023-01-29T19:35:57.579Z,1.00
2023-01-29T19:38:25.234Z,3.80
2023-01-29T19:40:53.093Z,2.20
2023-01-29T19:43:20.531Z,1.00
2023-01-29T19:45:54.036Z,2.20
2023-01-29T19:48:22.072Z,1.80
2023-01-29T19:50:57.842Z,3.20
2023-01-29T19:53:27.577Z,0.80
2023-01-29T19:55:59.219Z,4.00
2023-01-29T19:58:26.912Z,1.80
2023-01-29T20:01:07.527Z,1.60
2023-01-29T20:03:35.010Z,3.20
2023-01-29T20:06:06.635Z,2.40
2023-01-29T20:08:34.814Z,1.40
2023-01-29T20:11:03.073Z,4.60
2023-01-29T20:13:30.390Z,3.60
2023-01-29T20:15:57.740Z,1.00
2023-01-29T20:18:25.213Z,1.00
2023-01-29T20:20:53.570Z,0.40
2023-01-29T20:23:36.511Z,0.00
2023-01-29T20:26:06.811Z,5.80
2023-01-29T20:28:35.126Z,1.20
2023-01-29T20:31:03.228Z,0.80
2023-01-29T20:33:30.814Z,1.00
2023-01-29T20:36:03.292Z,0.00
2023-01-29T20:38:34.778Z,4.00
2023-01-29T20:41:08.167Z,0.00
2023-01-29T20:43:36.282Z,0.00
2023-01-29T20:46:04.199Z,1.00
2023-01-29T20:48:32.413Z,4.00
2023-01-29T20:51:10.141Z,0.60
2023-01-29T20:53:38.049Z,0.00
2023-01-29T20:56:05.722Z,2.40
2023-01-29T20:58:33.430Z,0.80
2023-01-29T21:01:00.994Z,1.00
2023-01-29T21:03:28.596Z,0.40
2023-01-29T21:05:59.257Z,2.20
2023-01-29T21:08:26.676Z,2.60
2023-01-29T21:10:54.178Z,0.60
2023-01-29T21:13:21.637Z,0.00
2023-01-29T21:15:51.197Z,0.60
2023-01-29T21:18:18.485Z,0.00
2023-01-29T21:20:46.095Z,1.40
2023-01-29T21:23:13.366Z,4.00
2023-01-29T21:25:41.381Z,1.00
2023-01-29T21:28:08.792Z,0.80
2023-01-29T21:30:36.282Z,2.80
2023-01-29T21:33:04.456Z,0.40
2023-01-29T21:35:32.318Z,2.80
2023-01-29T21:37:59.618Z,0.60
2023-01-29T21:40:26.915Z,1.80
2023-01-29T21:43:12.251Z,3.00
2023-01-29T21:45:40.711Z,0.00
2023-01-29T21:48:11.649Z,1.00
2023-01-29T21:50:39.402Z,1.40
2023-01-29T21:53:06.754Z,0.00
2023-01-29T21:55:34.056Z,0.00
2023-01-29T21:58:01.441Z,3.40
2023-01-29T22:00:28.727Z,2.00
2023-01-29T22:02:56.063Z,1.20
2023-01-29T22:05:23.496Z,0.00
2023-01-29T22:07:50.841Z,0.00
2023-01-29T22:10:20.137Z,1.00
2023-01-29T22:12:48.664Z,0.60
2023-01-29T22:15:16.471Z,0.80
2023-01-29T22:17:44.004Z,1.80
2023-01-29T22:20:12.840Z,0.60
2023-01-29T22:22:40.507Z,0.00
2023-01-29T22:25:08.584Z,0.20
2023-01-29T22:27:36.290Z,1.00
2023-01-29T22:30:05.172Z,0.40
2023-01-29T22:32:32.960Z,0.00
2023-01-29T22:35:00.677Z,5.00
2023-01-29T22:37:28.150Z,0.40
2023-01-29T22:39:55.479Z,1.00
2023-01-29T22:42:23.052Z,0.00
2023-01-29T22:44:51.007Z,1.40
2023-01-29T22:47:18.637Z,0.00
2023-01-29T22:49:49.423Z,0.60
2023-01-29T22:52:20.651Z,0.00
2023-01-29T22:54:48.315Z,1.80
2023-01-29T22:57:16.408Z,0.80
2023-01-29T22:59:44.006Z,0.00
2023-01-29T23:02:11.788Z,0.20
2023-01-29T23:04:39.550Z,0.60
2023-01-29T23:07:07.128Z,1.00
2023-01-29T23:09:34.623Z,1.60
2023-01-29T23:12:02.345Z,0.60
2023-01-29T23:14:29.951Z,1.40
2023-01-29T23:16:57.641Z,0.00
2023-01-29T23:19:25.396Z,1.40
2023-01-29T23:21:52.988Z,1.00
2023-01-29T23:24:20.505Z,0.00
2023-01-29T23:27:06.866Z,0.80
2023-01-29T23:29:34.455Z,1.00
2023-01-29T23:32:01.974Z,1.80
2023-01-29T23:34:30.024Z,0.00
2023-01-29T23:36:57.498Z,1.20
2023-01-29T23:39:25.242Z,0.00
2023-01-29T23:41:52.563Z,0.40
2023-01-29T23:44:20.831Z,0.40
2023-01-29T23:46:48.485Z,1.00
2023-01-29T23:49:16.312Z,3.20
2023-01-29T23:51:43.976Z,0.40
2023-01-29T23:54:11.608Z,0.20
2023-01-29T23:56:39.258Z,1.00
2023-01-29T23:59:06.862Z,0.60
